Zeewolde, Netherlands
Current Conditions -  °F | °C
As of 11:05 AM on Thursday 23 Oct 2014 (Local Time) from EHDL Reporting Station
Haze Haze  
Wind Chill: 52°   Ceiling: 2400
Heat Index: 52°   Visibility: 5mi
Dew Point: 48°   Wind: 8mph
Humidity: 88%   Direction: 200°SSW
Pressure: 30.18"   Gusts: NA
Location:  52.33°N, 5.54°E
Report Text: EHDL 230905Z AUTO 20007KT 8000 BR OVC024 11/09 Q1022 BLACKWHT
Loading
Personal Weather Stations






























Interactive Weather Map
Tropical Storm Tracking
New forecast layout! Learn more

10-Day Weather Forecast

Advertisements
Track Severe Weather on mobile